Weather History for KWRI - December, 2012

Change the Weather History Date:

Thursday, December 27, 2012

  Actual Average Record
Temperature  
Mean Temperature 38 °F -  
Max Temperature 45 °F 40 °F 59 °F (2011)
Min Temperature 32 °F 24 °F 10 °F (1998)
Degree Days  
Heating Degree Days 26    
Moisture  
Dew Point 36 °F    
Average Humidity 88    
Maximum Humidity 100    
Minimum Humidity 61    
Precipitation  
Precipitation 0.08 in - - ()
Sea Level Pressure  
Sea Level Pressure 29.42 in    
Wind  
Wind Speed 18 mph (NW)    
Max Wind Speed 30 mph    
Max Gust Speed 39 mph    
Visibility 8 miles    
Events Rain    
Averages and records for this station are not official NWS values.
T = Trace of Precipitation, MM = Missing Value Source: NWS Daily Summary

Daily Weather History Graph

Daily Weather History Graph

Search for Another Location

Airport or City:

Trip Planner

Search our weather history database for the weather conditions in past years. The results will help you decide how hot, cold, wet, or windy it might be!

Date:

Astronomy

Dec. 27, 2012 Rise Set
Actual Time 7:19 AM EST 4:40 PM EST
Civil Twilight 6:48 AM EST 5:10 PM EST
Nautical Twilight 6:14 AM EST 5:44 PM EST
Astronomical Twilight 5:41 AM EST 6:17 PM EST
Moon 4:21 PM EST (12/27) 6:28 AM EST (12/27)
Length of Visible Light 10h 21m
Length of Day
9h 20m
Full, 100% of the Moon is Illuminated
Dec 27
Full
Dec 28
Full
Jan 4
Last Quarter
Jan 11
New
Jan 18
First Quarter

Hourly Weather History & Observations

Time (EST) Temp. Windchill Dew Point Humidity Pressure Visibility Wind Dir Wind Speed Gust Speed Precip Events Conditions
12:01 AM 42.8 °F 32.7 °F 42.8 °F 100% 29.32 in 10.0 mi NNE 27.6 mph 35.7 mph N/A Rain Light Rain
12:08 AM 42.8 °F 32.3 °F 42.8 °F 100% 29.31 in 10.0 mi North 29.9 mph 35.7 mph N/A   Overcast
12:22 AM 42.8 °F 33.1 °F 42.8 °F 100% 29.30 in 10.0 mi NNE 25.3 mph 39.1 mph N/A   Overcast
12:55 AM 43.7 °F 34.7 °F 43.3 °F 99% 29.28 in 10.0 mi NNE 23.0 mph 34.5 mph 0.00 in   Overcast
1:14 AM 42.8 °F 33.5 °F 42.8 °F 100% 29.27 in 10.0 mi NNE 23.0 mph 34.5 mph N/A   Overcast
1:55 AM 43.7 °F 35.2 °F 43.3 °F 99% 29.27 in 10.0 mi NNE 20.7 mph 31.1 mph N/A   Overcast
2:08 AM 44.6 °F 36.6 °F 42.8 °F 93% 29.27 in 10.0 mi NNE 19.6 mph 27.6 mph N/A   Overcast
2:55 AM 45.3 °F 37.6 °F 42.8 °F 91% 29.24 in 10.0 mi NNE 19.6 mph 23.0 mph N/A   Overcast
3:03 AM 44.6 °F 38.1 °F 42.8 °F 93% 29.24 in 10.0 mi NNE 13.8 mph - N/A   Overcast
3:04 AM 44.6 °F 38.1 °F 42.8 °F 93% 29.24 in 10.0 mi NNE 13.8 mph - N/A   Overcast
3:16 AM 44.6 °F 37.2 °F 42.8 °F 93% 29.24 in 10.0 mi North 17.3 mph - N/A Rain Light Rain
3:19 AM 44.6 °F 36.9 °F 42.8 °F 93% 29.24 in 9.0 mi North 18.4 mph - N/A Rain Light Rain
3:49 AM 44.6 °F 38.4 °F 42.8 °F 93% 29.25 in 10.0 mi North 12.7 mph - N/A   Overcast
3:55 AM 44.1 °F 37.4 °F 42.4 °F 94% 29.25 in 10.0 mi North 13.8 mph - 0.01 in   Overcast
3:56 AM 44.6 °F 39.2 °F 42.8 °F 93% 29.25 in 10.0 mi NNE 10.4 mph - N/A   Overcast
4:06 AM 44.6 °F 38.8 °F 42.8 °F 93% 29.25 in 10.0 mi North 11.5 mph - N/A Rain Light Rain
4:16 AM 42.8 °F 35.8 °F 42.8 °F 100% 29.25 in 10.0 mi NNW 13.8 mph - N/A   Overcast
4:21 AM 42.8 °F 37.5 °F 42.8 °F 100% 29.25 in 10.0 mi North 9.2 mph - N/A Rain Light Rain
4:31 AM 42.8 °F 37.0 °F 41.0 °F 93% 29.25 in 8.0 mi North 10.4 mph - N/A Rain Light Rain
4:33 AM 42.8 °F 37.0 °F 41.0 °F 93% 29.25 in 7.0 mi North 10.4 mph - N/A Rain Light Rain
4:49 AM 42.8 °F 36.6 °F 41.0 °F 93% 29.25 in 9.0 mi NNW 11.5 mph - N/A Rain Light Rain
4:52 AM 42.8 °F 36.2 °F 41.0 °F 93% 29.26 in 9.0 mi NNW 12.7 mph - N/A Rain Light Rain
4:55 AM 42.3 °F 35.9 °F 41.4 °F 97% 29.26 in 10.0 mi North 11.5 mph - 0.01 in Rain Light Rain
5:01 AM 42.8 °F 37.0 °F 41.0 °F 93% 29.26 in 10.0 mi North 10.4 mph - N/A   Overcast
5:06 AM 42.8 °F 36.6 °F 41.0 °F 93% 29.26 in 10.0 mi North 11.5 mph - N/A   Overcast
5:12 AM 42.8 °F 36.2 °F 41.0 °F 93% 29.26 in 10.0 mi North 12.7 mph - N/A Rain Light Rain
5:26 AM 42.8 °F 36.6 °F 41.0 °F 93% 29.26 in 10.0 mi North 11.5 mph - N/A   Overcast
5:33 AM 42.8 °F 37.0 °F 41.0 °F 93% 29.28 in 10.0 mi NNW 10.4 mph - N/A Rain Light Rain
5:43 AM 42.8 °F 37.5 °F 41.0 °F 93% 29.30 in 10.0 mi West 9.2 mph - N/A   Overcast
5:49 AM 41.0 °F 33.9 °F 41.0 °F 100% 29.31 in 10.0 mi WNW 12.7 mph - N/A Rain Light Rain
5:54 AM 41.0 °F 33.9 °F 39.2 °F 93% 29.31 in 8.0 mi West 12.7 mph - N/A Rain Light Rain
5:55 AM 41.4 °F 34.3 °F 39.9 °F 95% 29.31 in 7.0 mi WNW 12.7 mph - 0.01 in Rain Light Rain
6:00 AM 41.0 °F 33.5 °F 39.2 °F 93% 29.31 in 5.0 mi WNW 13.8 mph - N/A Rain Heavy Rain
6:01 AM 41.0 °F 33.5 °F 39.2 °F 93% 29.31 in 5.0 mi WNW 13.8 mph - N/A Rain Heavy Rain
6:02 AM 41.0 °F 33.9 °F 39.2 °F 93% 29.31 in 5.0 mi WNW 12.7 mph - N/A Rain Heavy Rain
6:11 AM 41.0 °F 34.3 °F 39.2 °F 93% 29.31 in 5.0 mi WNW 11.5 mph - N/A Rain Rain
6:12 AM 41.0 °F 34.3 °F 39.2 °F 93% 29.31 in 5.0 mi WNW 11.5 mph - N/A Rain Rain
6:32 AM 41.0 °F 34.3 °F 39.2 °F 93% 29.32 in 6.0 mi WNW 11.5 mph - N/A Rain Light Rain
6:33 AM 41.0 °F 33.9 °F 39.2 °F 93% 29.32 in 7.0 mi NW 12.7 mph - N/A Rain Light Rain
6:55 AM 39.9 °F 32.1 °F 38.8 °F 96% 29.32 in 7.0 mi WNW 13.8 mph - 0.03 in Rain Light Rain
7:02 AM 39.2 °F 30.5 °F 39.2 °F 100% 29.33 in 6.0 mi WNW 16.1 mph - N/A Rain Light Rain
7:11 AM 39.2 °F 30.8 °F 39.2 °F 100% 29.33 in 6.0 mi WNW 15.0 mph - N/A Rain Light Rain
7:20 AM 39.2 °F 30.2 °F 39.2 °F 100% 29.34 in 7.0 mi NW 17.3 mph 25.3 mph N/A Rain Light Rain
7:45 AM 37.4 °F 27.2 °F 35.6 °F 93% 29.37 in 2.5 mi WNW 19.6 mph 27.6 mph N/A Rain Light Rain
7:55 AM 37.0 °F 28.1 °F 35.8 °F 95% 29.37 in 2.5 mi WNW 15.0 mph 27.6 mph 0.01 in Rain Light Rain
7:56 AM 37.4 °F 28.2 °F 35.6 °F 93% 29.38 in 3.0 mi WNW 16.1 mph - N/A Rain Light Rain
8:48 AM 37.4 °F 27.5 °F 35.6 °F 93% 29.42 in 2.5 mi WNW 18.4 mph 26.5 mph N/A Rain Light Rain
8:55 AM 37.8 °F 28.0 °F 36.3 °F 95% 29.43 in 2.5 mi WNW 18.4 mph 28.8 mph 0.00 in Rain Light Rain
8:57 AM 37.4 °F 28.2 °F 35.6 °F 93% 29.44 in 3.0 mi WNW 16.1 mph 28.8 mph N/A Rain Light Rain
9:20 AM 37.4 °F 27.8 °F 35.6 °F 93% 29.46 in 4.0 mi WNW 17.3 mph 28.8 mph N/A Rain Rain
9:24 AM 37.4 °F 27.2 °F 35.6 °F 93% 29.46 in 4.0 mi WNW 19.6 mph 28.8 mph N/A Rain Light Rain
9:31 AM 35.6 °F 25.9 °F 33.8 °F 93% 29.47 in 6.0 mi WNW 16.1 mph 28.8 mph N/A Rain Light Rain
9:39 AM 35.6 °F 25.9 °F 33.8 °F 93% 29.47 in 10.0 mi WNW 16.1 mph 29.9 mph N/A Rain Light Rain
9:44 AM 37.4 °F 28.5 °F 33.8 °F 87% 29.48 in 10.0 mi WNW 15.0 mph 28.8 mph N/A Rain Light Rain
9:47 AM 37.4 °F 27.2 °F 33.8 °F 87% 29.48 in 10.0 mi NW 19.6 mph 25.3 mph N/A   Mostly Cloudy
9:55 AM 37.0 °F 28.5 °F 34.7 °F 91% 29.49 in 10.0 mi WNW 13.8 mph 26.5 mph 0.01 in   Mostly Cloudy
9:56 AM 37.4 °F 29.3 °F 33.8 °F 87% 29.49 in 10.0 mi WNW 12.7 mph 26.5 mph N/A   Mostly Cloudy
9:57 AM 37.4 °F 29.3 °F 33.8 °F 87% 29.49 in 10.0 mi WNW 12.7 mph 26.5 mph N/A Rain Light Rain
9:59 AM 37.4 °F 27.8 °F 33.8 °F 87% 29.49 in 9.0 mi WNW 17.3 mph 26.5 mph N/A Rain Light Rain
10:00 AM 37.4 °F 28.2 °F 33.8 °F 87% 29.49 in 9.0 mi WNW 16.1 mph 26.5 mph N/A Rain Light Rain
10:04 AM 37.4 °F 28.2 °F 33.8 °F 87% 29.49 in 7.0 mi WNW 16.1 mph 24.2 mph N/A Rain Light Rain
10:08 AM 35.6 °F 26.2 °F 33.8 °F 93% 29.50 in 7.0 mi WNW 15.0 mph 24.2 mph N/A Rain Light Rain
10:10 AM 35.6 °F 27.1 °F 33.8 °F 93% 29.50 in 7.0 mi WNW 12.7 mph 23.0 mph N/A Rain Light Rain
10:13 AM 35.6 °F 26.2 °F 33.8 °F 93% 29.50 in 8.0 mi WNW 15.0 mph 21.9 mph N/A Rain Light Rain
10:15 AM 35.6 °F 26.2 °F 33.8 °F 93% 29.50 in 9.0 mi WNW 15.0 mph 24.2 mph N/A Rain Light Rain
10:19 AM 35.6 °F 26.2 °F 33.8 °F 93% 29.50 in 9.0 mi NW 15.0 mph 25.3 mph N/A Rain Light Rain
10:21 AM 35.6 °F 26.6 °F 33.8 °F 93% 29.50 in 9.0 mi WNW 13.8 mph 25.3 mph N/A Rain Light Rain
10:23 AM 37.4 °F 28.9 °F 33.8 °F 87% 29.50 in 9.0 mi NW 13.8 mph 25.3 mph N/A   Mostly Cloudy
10:25 AM 37.4 °F 28.2 °F 33.8 °F 87% 29.50 in 9.0 mi NW 16.1 mph 25.3 mph N/A   Mostly Cloudy
10:40 AM 37.4 °F 27.5 °F 33.8 °F 87% 29.51 in 10.0 mi NW 18.4 mph 25.3 mph N/A   Scattered Clouds
10:41 AM 37.4 °F 27.8 °F 33.8 °F 87% 29.51 in 10.0 mi WNW 17.3 mph 25.3 mph N/A Rain Light Rain
10:50 AM 37.4 °F 28.9 °F 33.8 °F 87% 29.51 in 10.0 mi WNW 13.8 mph 24.2 mph N/A   Scattered Clouds
10:55 AM 37.6 °F 29.1 °F 33.1 °F 84% 29.52 in 10.0 mi WNW 13.8 mph 24.2 mph 0.00 in   Scattered Clouds
11:07 AM 39.2 °F 30.8 °F 33.8 °F 81% 29.52 in 10.0 mi WNW 15.0 mph 25.3 mph N/A   Mostly Cloudy
11:14 AM 39.2 °F 30.2 °F 32.0 °F 75% 29.51 in 10.0 mi WNW 17.3 mph 25.3 mph N/A   Mostly Cloudy
11:15 AM 39.2 °F 29.6 °F 32.0 °F 75% 29.52 in 10.0 mi WNW 19.6 mph 25.3 mph N/A   Mostly Cloudy
11:17 AM 39.2 °F 30.8 °F 32.0 °F 75% 29.52 in 10.0 mi NW 15.0 mph 25.3 mph N/A   Mostly Cloudy
11:19 AM 39.2 °F 30.2 °F 32.0 °F 75% 29.52 in 10.0 mi WNW 17.3 mph 25.3 mph N/A   Overcast
11:55 AM 38.1 °F 28.8 °F 30.2 °F 73% 29.52 in 10.0 mi WNW 17.3 mph 26.5 mph N/A   Overcast
12:48 PM 37.4 °F 27.2 °F 28.4 °F 70% 29.54 in 10.0 mi WNW 19.6 mph 32.2 mph N/A   Overcast
12:55 PM 37.4 °F 25.9 °F 28.6 °F 70% 29.55 in 10.0 mi WNW 25.3 mph 33.4 mph N/A   Overcast
1:18 PM 37.4 °F 27.5 °F 28.4 °F 70% 29.55 in 10.0 mi WNW 18.4 mph 34.5 mph N/A   Overcast
1:55 PM 37.0 °F 25.6 °F 27.0 °F 67% 29.57 in 10.0 mi NW 24.2 mph 33.4 mph N/A   Overcast
2:11 PM 37.4 °F 27.5 °F 26.6 °F 65% 29.58 in 10.0 mi WNW 18.4 mph 38.0 mph N/A   Overcast
2:55 PM 36.1 °F 25.9 °F 26.2 °F 67% 29.60 in 10.0 mi WNW 18.4 mph 29.9 mph N/A   Overcast
3:55 PM 35.8 °F 25.4 °F 25.2 °F 65% 29.65 in 10.0 mi WNW 18.4 mph 27.6 mph N/A   Overcast
4:55 PM 35.8 °F 26.5 °F 24.6 °F 64% 29.68 in 10.0 mi WNW 15.0 mph 23.0 mph N/A   Overcast
5:55 PM 35.8 °F 25.4 °F 24.1 °F 62% 29.73 in 10.0 mi WNW 18.4 mph 25.3 mph N/A   Overcast
6:55 PM 34.7 °F 25.5 °F 23.2 °F 63% 29.76 in 10.0 mi WNW 13.8 mph 26.5 mph N/A   Mostly Cloudy
7:55 PM 33.6 °F 23.3 °F 21.9 °F 62% 29.79 in 10.0 mi WNW 16.1 mph 24.2 mph N/A   Mostly Cloudy
8:55 PM 33.3 °F 23.2 °F 21.2 °F 61% 29.82 in 10.0 mi WNW 15.0 mph 21.9 mph N/A   Scattered Clouds
9:55 PM 32.9 °F 24.1 °F 21.6 °F 63% 29.85 in 10.0 mi NW 11.5 mph 24.2 mph N/A   Mostly Cloudy
10:55 PM 33.3 °F 22.8 °F 21.4 °F 62% 29.87 in 10.0 mi NW 16.1 mph 21.9 mph N/A   Overcast
11:55 PM 32.9 °F 21.0 °F 21.9 °F 64% 29.88 in 10.0 mi NW 20.7 mph 29.9 mph N/A   Overcast